Time;durP1;ratioP1;P1;durP2;ratioP2;P2;SDS_P1;SDS_P2;PMS_P1;PMS_P2;Temp;Humidity;BMP_temperature;BMP_pressure;BME280_temperature;BME280_humidity;BME280_pressure;Samples;Min_cycle;Max_cycle;Signal;HPM_P1;HPM_P2
2024/02/28 00:00:39;;;;;;;27.03;11.43;;;4.80;99.90;;;;;;4183860;28;20574;-73
2024/02/28 00:02:41;;;;;;;26.20;11.53;;;4.70;99.90;;;;;;4188087;28;20450;-73
2024/02/28 00:04:43;;;;;;;26.67;11.33;;;4.80;99.90;;;;;;4186289;28;20841;-75
2024/02/28 00:06:46;;;;;;;25.57;11.07;;;4.80;99.90;;;;;;4184419;28;20539;-73
2024/02/28 00:08:49;;;;;;;28.23;11.70;;;4.80;99.90;;;;;;4185989;28;20466;-73
2024/02/28 00:10:51;;;;;;;22.23;10.27;;;4.80;99.90;;;;;;4185422;28;20467;-72
2024/02/28 00:12:52;;;;;;;24.37;10.47;;;4.80;99.90;;;;;;4184152;28;20462;-72
2024/02/28 00:14:55;;;;;;;23.47;10.37;;;4.80;99.90;;;;;;4182611;28;21170;-73
2024/02/28 00:16:59;;;;;;;22.80;10.87;;;4.80;99.90;;;;;;4188376;28;20193;-75
2024/02/28 00:19:01;;;;;;;24.50;11.63;;;4.70;99.90;;;;;;4192449;28;20451;-72
2024/02/28 00:21:04;;;;;;;25.77;11.70;;;4.70;99.90;;;;;;4186216;28;20561;-74
2024/02/28 00:23:06;;;;;;;24.90;11.63;;;4.80;99.90;;;;;;4186736;28;20531;-73
2024/02/28 00:25:11;;;;;;;24.67;10.83;;;4.80;99.90;;;;;;4183635;28;20491;-75
2024/02/28 00:27:12;;;;;;;24.97;10.87;;;4.70;99.90;;;;;;4184888;28;20587;-73
2024/02/28 00:29:14;;;;;;;22.57;10.57;;;4.70;99.90;;;;;;4188407;28;20500;-74
2024/02/28 00:31:18;;;;;;;23.60;10.83;;;4.70;99.90;;;;;;4188315;28;20489;-72
2024/02/28 00:33:20;;;;;;;25.73;11.23;;;4.80;99.90;;;;;;4182872;28;20483;-72
2024/02/28 00:35:22;;;;;;;18.93;9.90;;;4.70;99.90;;;;;;4190861;28;20513;-74
2024/02/28 00:37:25;;;;;;;24.30;11.57;;;4.70;99.90;;;;;;4188879;28;20454;-74
2024/02/28 00:39:26;;;;;;;26.27;10.80;;;4.70;99.90;;;;;;4182796;28;21091;-72
2024/02/28 00:41:28;;;;;;;25.20;11.07;;;4.70;99.90;;;;;;4183807;28;20973;-73
2024/02/28 00:43:30;;;;;;;27.67;11.03;;;4.70;99.90;;;;;;4190019;28;20521;-73
2024/02/28 00:45:32;;;;;;;24.90;11.97;;;4.70;99.90;;;;;;4187109;28;20533;-73
2024/02/28 00:47:36;;;;;;;24.60;10.80;;;4.70;99.90;;;;;;4187594;28;20488;-76
2024/02/28 00:49:38;;;;;;;26.97;12.03;;;4.70;99.90;;;;;;4185877;28;22058;-74
2024/02/28 00:51:41;;;;;;;28.93;12.80;;;4.50;99.90;;;;;;4185038;28;20515;-76
2024/02/28 00:53:43;;;;;;;29.33;12.30;;;4.70;99.90;;;;;;4183850;28;20450;-74
2024/02/28 00:55:45;;;;;;;25.70;11.13;;;4.70;99.90;;;;;;4181434;28;20483;-72
2024/02/28 00:57:48;;;;;;;24.87;11.67;;;4.70;99.90;;;;;;4184987;28;20546;-72
2024/02/28 00:59:48;;;;;;;26.90;12.20;;;4.70;99.90;;;;;;4189767;28;20516;-72
2024/02/28 01:01:51;;;;;;;25.87;11.50;;;4.70;99.90;;;;;;4190097;28;20446;-75
2024/02/28 01:03:54;;;;;;;23.47;11.77;;;4.70;99.90;;;;;;4190147;28;20215;-72
2024/02/28 01:06:01;;;;;;;24.90;11.50;;;4.70;99.90;;;;;;4185868;28;20445;-72
2024/02/28 01:08:03;;;;;;;25.73;11.90;;;4.70;99.90;;;;;;4179162;28;20487;-72
2024/02/28 01:10:05;;;;;;;24.57;11.63;;;4.70;99.90;;;;;;4180783;28;20536;-73
2024/02/28 01:12:07;;;;;;;27.17;11.97;;;4.70;99.90;;;;;;4184720;28;20447;-72
2024/02/28 01:14:08;;;;;;;27.83;11.60;;;4.70;99.90;;;;;;4187953;28;20505;-72
2024/02/28 01:16:10;;;;;;;25.33;12.07;;;4.70;99.90;;;;;;4184747;28;20438;-72
2024/02/28 01:18:12;;;;;;;21.13;10.27;;;4.70;99.90;;;;;;4190012;28;20203;-72
2024/02/28 01:20:15;;;;;;;25.63;11.87;;;4.70;99.90;;;;;;4181071;28;20873;-72
2024/02/28 01:22:17;;;;;;;21.27;10.13;;;4.70;99.90;;;;;;4190161;28;20489;-72
2024/02/28 01:24:19;;;;;;;24.17;10.60;;;4.70;99.90;;;;;;4184497;28;21053;-72
2024/02/28 01:26:22;;;;;;;25.70;11.93;;;4.70;99.90;;;;;;4185941;28;20205;-74
2024/02/28 01:28:24;;;;;;;21.43;10.20;;;4.70;99.90;;;;;;4186771;28;21028;-74
2024/02/28 01:30:26;;;;;;;27.07;11.13;;;4.70;99.90;;;;;;4189490;28;20466;-76
2024/02/28 01:32:30;;;;;;;21.07;10.63;;;4.70;99.90;;;;;;4184587;28;21118;-74
2024/02/28 01:34:32;;;;;;;17.93;9.80;;;4.70;99.90;;;;;;4184843;28;20498;-74
2024/02/28 01:36:35;;;;;;;23.20;11.40;;;4.70;99.90;;;;;;4188692;28;20939;-75
2024/02/28 01:38:36;;;;;;;23.03;10.87;;;4.70;99.90;;;;;;4196360;28;20477;-76
2024/02/28 01:40:38;;;;;;;22.67;10.80;;;4.70;99.90;;;;;;4198569;28;20453;-74
2024/02/28 01:42:40;;;;;;;23.17;11.33;;;4.70;99.90;;;;;;4198465;28;20658;-75
2024/02/28 01:44:45;;;;;;;23.47;11.00;;;4.70;99.90;;;;;;4201277;28;20467;-73
2024/02/28 01:46:46;;;;;;;27.53;12.47;;;4.70;99.90;;;;;;4200050;28;20482;-74
2024/02/28 01:48:48;;;;;;;29.97;12.83;;;4.70;99.90;;;;;;4192232;28;20482;-75
2024/02/28 01:50:51;;;;;;;27.07;11.73;;;4.70;99.90;;;;;;4189792;28;20474;-75
2024/02/28 01:52:53;;;;;;;25.83;11.20;;;4.70;99.90;;;;;;4185033;28;20477;-73
2024/02/28 01:54:55;;;;;;;25.13;12.07;;;4.70;99.90;;;;;;4185594;28;20527;-75
2024/02/28 01:56:57;;;;;;;23.53;12.27;;;4.70;99.90;;;;;;4186530;28;21000;-76
2024/02/28 01:59:00;;;;;;;31.60;13.63;;;4.70;99.90;;;;;;4186773;28;20854;-75
2024/02/28 02:01:06;;;;;;;26.63;12.50;;;4.70;99.90;;;;;;4182902;28;20475;-75
2024/02/28 02:03:08;;;;;;;29.57;12.90;;;4.60;99.90;;;;;;4188886;28;20436;-72
2024/02/28 02:05:12;;;;;;;27.77;12.97;;;4.60;99.90;;;;;;4189514;28;20509;-74
2024/02/28 02:07:15;;;;;;;28.93;13.33;;;4.70;99.90;;;;;;4184812;28;20562;-74
2024/02/28 02:09:18;;;;;;;29.83;14.17;;;4.60;99.90;;;;;;4185741;28;20992;-74
2024/02/28 02:11:21;;;;;;;30.13;13.73;;;4.50;99.90;;;;;;4186396;28;20495;-75
2024/02/28 02:13:26;;;;;;;25.90;12.30;;;4.60;99.90;;;;;;4186469;28;20470;-75
2024/02/28 02:15:30;;;;;;;33.17;14.23;;;4.60;99.90;;;;;;4186991;28;20501;-75
2024/02/28 02:17:32;;;;;;;33.37;14.77;;;4.60;99.90;;;;;;4187601;28;21005;-75
2024/02/28 02:19:33;;;;;;;31.80;14.97;;;4.60;99.90;;;;;;4187636;28;20446;-75
2024/02/28 02:21:40;;;;;;;31.20;14.73;;;4.60;99.90;;;;;;4187102;28;20460;-74
2024/02/28 02:23:44;;;;;;;31.83;14.33;;;4.60;99.90;;;;;;4189123;28;20467;-75
2024/02/28 02:25:46;;;;;;;28.97;13.97;;;4.60;99.90;;;;;;4184868;28;20515;-75
2024/02/28 02:27:48;;;;;;;32.93;14.70;;;4.60;99.90;;;;;;4187360;28;20488;-75
2024/02/28 02:29:51;;;;;;;31.83;14.73;;;4.60;99.90;;;;;;4185869;28;20464;-74
2024/02/28 02:31:52;;;;;;;35.57;14.87;;;4.60;99.90;;;;;;4183433;28;20466;-73
2024/02/28 02:33:55;;;;;;;29.40;14.47;;;4.60;99.90;;;;;;4184772;28;20485;-74
2024/02/28 02:35:56;;;;;;;33.07;14.60;;;4.60;99.90;;;;;;4182612;28;20219;-75
2024/02/28 02:37:58;;;;;;;31.33;13.33;;;4.60;99.90;;;;;;4185867;28;20446;-74
2024/02/28 02:40:01;;;;;;;32.00;14.83;;;4.60;99.90;;;;;;4183746;28;20525;-75
2024/02/28 02:42:03;;;;;;;35.13;14.63;;;4.60;99.90;;;;;;4185256;28;20446;-74
2024/02/28 02:44:05;;;;;;;30.53;13.70;;;4.50;99.90;;;;;;4186627;28;20941;-74
2024/02/28 02:46:07;;;;;;;35.67;14.33;;;4.50;99.90;;;;;;4185872;28;20898;-72
2024/02/28 02:48:09;;;;;;;34.70;14.50;;;4.50;99.90;;;;;;4188181;28;20521;-75
2024/02/28 02:50:11;;;;;;;34.93;14.83;;;4.50;99.90;;;;;;4183279;28;20545;-75
2024/02/28 02:52:16;;;;;;;34.93;13.70;;;4.50;99.90;;;;;;4188567;28;20446;-77
2024/02/28 02:54:19;;;;;;;32.03;13.80;;;4.50;99.90;;;;;;4190196;28;20882;-77
2024/02/28 02:56:22;;;;;;;27.13;13.47;;;4.50;99.90;;;;;;4185475;28;20461;-75
2024/02/28 02:58:24;;;;;;;32.33;14.30;;;4.50;99.90;;;;;;4186342;28;20446;-75
2024/02/28 03:00:26;;;;;;;31.17;13.57;;;4.50;99.90;;;;;;4187420;28;20950;-74
2024/02/28 03:02:28;;;;;;;33.27;14.33;;;4.50;99.90;;;;;;4187750;28;21162;-75
2024/02/28 03:04:30;;;;;;;31.10;14.77;;;4.50;99.90;;;;;;4188921;28;20848;-74
2024/02/28 03:06:33;;;;;;;31.57;14.20;;;4.40;99.90;;;;;;4186014;28;20469;-74
2024/02/28 03:08:34;;;;;;;32.80;14.63;;;4.40;99.90;;;;;;4187126;28;21056;-75
2024/02/28 03:10:35;;;;;;;29.60;13.90;;;4.40;99.90;;;;;;4185644;28;20447;-75
2024/02/28 03:12:39;;;;;;;33.57;15.60;;;4.40;99.90;;;;;;4188755;28;20458;-75
2024/02/28 03:14:40;;;;;;;31.33;14.37;;;4.40;99.90;;;;;;4187341;28;20355;-75
2024/02/28 03:16:43;;;;;;;33.07;14.60;;;4.40;99.90;;;;;;4187703;28;20794;-75
2024/02/28 03:18:44;;;;;;;32.97;15.23;;;4.40;99.90;;;;;;4186383;28;20498;-75
2024/02/28 03:20:46;;;;;;;37.13;14.93;;;4.40;99.90;;;;;;4185374;28;20461;-74
2024/02/28 03:22:48;;;;;;;34.53;14.93;;;4.40;99.90;;;;;;4186675;28;20455;-74
2024/02/28 03:24:50;;;;;;;30.23;14.37;;;4.40;99.90;;;;;;4188078;28;20471;-74
2024/02/28 03:26:54;;;;;;;31.37;14.23;;;4.40;99.90;;;;;;4186362;28;20455;-76
2024/02/28 03:28:58;;;;;;;34.67;14.90;;;4.40;99.90;;;;;;4186819;28;20526;-74
2024/02/28 03:30:59;;;;;;;31.97;14.30;;;4.30;99.90;;;;;;4185329;28;20900;-76
2024/02/28 03:33:01;;;;;;;30.43;13.80;;;4.30;99.90;;;;;;4185784;28;20460;-75
2024/02/28 03:35:04;;;;;;;28.10;12.83;;;4.30;99.90;;;;;;4187243;28;20265;-75
2024/02/28 03:37:06;;;;;;;32.00;14.07;;;4.30;99.90;;;;;;4187524;28;20448;-75
2024/02/28 03:39:06;;;;;;;27.93;13.87;;;4.30;99.90;;;;;;4185477;28;21019;-75
2024/02/28 03:41:08;;;;;;;32.50;14.90;;;4.30;99.90;;;;;;4184057;28;20459;-74
2024/02/28 03:43:12;;;;;;;27.37;13.73;;;4.20;99.90;;;;;;4186057;28;20239;-75
2024/02/28 03:45:16;;;;;;;29.87;13.87;;;4.20;99.90;;;;;;4200533;28;20523;-74
2024/02/28 03:47:18;;;;;;;26.23;12.80;;;4.20;99.90;;;;;;4185250;28;20450;-74
2024/02/28 03:49:20;;;;;;;28.43;13.00;;;4.20;99.90;;;;;;4185767;28;20486;-74
2024/02/28 03:51:21;;;;;;;26.43;13.10;;;4.20;99.90;;;;;;4189911;28;21010;-74
2024/02/28 03:53:23;;;;;;;28.47;13.93;;;4.20;99.90;;;;;;4199391;28;20438;-75
2024/02/28 03:55:25;;;;;;;29.37;13.63;;;4.20;99.90;;;;;;4192850;28;20216;-72
2024/02/28 03:57:26;;;;;;;28.20;13.37;;;4.10;99.90;;;;;;4198169;28;20470;-73
2024/02/28 03:59:28;;;;;;;30.50;13.07;;;4.10;99.90;;;;;;4204357;28;20706;-74
2024/02/28 04:01:31;;;;;;;28.30;13.30;;;4.10;99.90;;;;;;4204323;28;20205;-71
2024/02/28 04:03:33;;;;;;;32.57;13.90;;;4.10;99.90;;;;;;4207692;28;21147;-74
2024/02/28 04:05:35;;;;;;;31.23;13.60;;;4.10;99.90;;;;;;4194713;28;21189;-76
2024/02/28 04:07:36;;;;;;;31.03;14.00;;;4.10;99.90;;;;;;4186868;28;21338;-75
2024/02/28 04:09:38;;;;;;;28.87;13.90;;;4.10;99.90;;;;;;4183125;28;20510;-75
2024/02/28 04:11:41;;;;;;;26.80;12.83;;;4.10;99.90;;;;;;4185534;28;20449;-76
2024/02/28 04:13:43;;;;;;;30.97;14.07;;;4.00;99.90;;;;;;4186039;28;20799;-75
2024/02/28 04:15:46;;;;;;;30.50;14.87;;;4.00;99.90;;;;;;4183739;28;20562;-78
2024/02/28 04:17:49;;;;;;;30.47;14.17;;;3.90;99.90;;;;;;4181958;28;20910;-76
2024/02/28 04:19:51;;;;;;;36.27;15.47;;;4.00;99.90;;;;;;4185717;28;20550;-75
2024/02/28 04:21:53;;;;;;;34.37;15.30;;;4.00;99.90;;;;;;4185483;28;20484;-76
2024/02/28 04:23:54;;;;;;;34.00;14.50;;;3.90;99.90;;;;;;4185115;28;20897;-74
2024/02/28 04:25:55;;;;;;;34.17;16.37;;;3.90;99.90;;;;;;4186476;28;20452;-77
2024/02/28 04:27:57;;;;;;;34.17;15.03;;;3.90;99.90;;;;;;4182884;28;20501;-76
2024/02/28 04:29:58;;;;;;;31.33;14.23;;;3.90;99.90;;;;;;4184294;28;20806;-75
2024/02/28 04:32:00;;;;;;;35.23;15.33;;;3.90;99.90;;;;;;4182945;28;20457;-76
2024/02/28 04:34:04;;;;;;;34.13;15.23;;;3.90;99.90;;;;;;4184814;28;20544;-74
2024/02/28 04:36:06;;;;;;;34.37;15.83;;;3.90;99.90;;;;;;4182352;28;20627;-76
2024/02/28 04:38:08;;;;;;;38.23;16.73;;;3.80;99.90;;;;;;4185219;28;20529;-75
2024/02/28 04:40:11;;;;;;;33.70;15.83;;;3.80;99.90;;;;;;4181454;28;20501;-74
2024/02/28 04:42:13;;;;;;;38.57;17.33;;;3.80;99.90;;;;;;4183609;28;20559;-73
2024/02/28 04:44:15;;;;;;;34.53;16.97;;;3.90;99.90;;;;;;4187741;28;20983;-75
2024/02/28 04:46:21;;;;;;;41.10;17.83;;;3.80;99.90;;;;;;4186765;28;20552;-74
2024/02/28 04:48:24;;;;;;;37.97;16.93;;;3.80;99.90;;;;;;4188734;28;20576;-76
2024/02/28 04:50:28;;;;;;;39.47;17.20;;;3.80;99.90;;;;;;4187738;28;20450;-77
2024/02/28 04:52:30;;;;;;;37.73;17.00;;;3.80;99.90;;;;;;4187765;28;20442;-74
2024/02/28 04:54:32;;;;;;;32.67;16.47;;;3.80;99.90;;;;;;4186104;28;20469;-76
2024/02/28 04:56:34;;;;;;;36.47;16.90;;;3.80;99.90;;;;;;4183143;28;20962;-75
2024/02/28 04:58:39;;;;;;;35.27;16.20;;;3.60;99.90;;;;;;4187516;28;20959;-76
2024/02/28 05:00:44;;;;;;;37.93;17.13;;;3.80;99.90;;;;;;4187961;28;20518;-75
2024/02/28 05:02:45;;;;;;;37.37;17.03;;;3.80;99.90;;;;;;4187518;28;20489;-76
2024/02/28 05:04:47;;;;;;;35.87;17.17;;;3.80;99.90;;;;;;4186152;28;20470;-76
2024/02/28 05:06:51;;;;;;;40.50;18.13;;;3.80;99.90;;;;;;4184459;28;20834;-74
2024/02/28 05:08:52;;;;;;;37.13;17.03;;;3.80;99.90;;;;;;4183817;28;20524;-77
2024/02/28 05:10:57;;;;;;;36.60;17.53;;;3.80;99.90;;;;;;4183513;28;20458;-79
2024/02/28 05:12:59;;;;;;;39.67;18.30;;;3.80;99.90;;;;;;4184347;28;20548;-76
2024/02/28 05:15:01;;;;;;;31.93;16.57;;;3.80;99.90;;;;;;4186928;28;20538;-75
2024/02/28 05:17:03;;;;;;;32.90;16.37;;;3.80;99.90;;;;;;4189212;28;20445;-76
2024/02/28 05:19:05;;;;;;;37.87;16.77;;;3.80;99.90;;;;;;4188053;28;20452;-76
2024/02/28 05:21:07;;;;;;;36.07;16.03;;;3.80;99.90;;;;;;4185508;28;20461;-76
2024/02/28 05:23:11;;;;;;;32.50;14.90;;;3.80;99.90;;;;;;4186577;28;20464;-75
2024/02/28 05:25:13;;;;;;;31.60;14.97;;;3.80;99.90;;;;;;4189278;28;20483;-75
2024/02/28 05:27:15;;;;;;;30.63;15.03;;;3.70;99.90;;;;;;4193758;28;20516;-80
2024/02/28 05:29:16;;;;;;;32.17;15.27;;;4.20;99.90;;;;;;4185053;28;20565;-75
2024/02/28 05:31:23;;;;;;;31.73;15.43;;;3.70;99.90;;;;;;4186277;28;20898;-72
2024/02/28 05:33:24;;;;;;;33.23;14.57;;;3.70;99.90;;;;;;4186924;28;20456;-75
2024/02/28 05:35:26;;;;;;;34.03;15.50;;;3.70;99.90;;;;;;4188354;28;20475;-75
2024/02/28 05:37:28;;;;;;;38.87;15.60;;;3.70;99.90;;;;;;4185516;28;20289;-72
2024/02/28 05:39:30;;;;;;;31.77;15.20;;;4.20;99.90;;;;;;4186672;28;20537;-71
2024/02/28 05:41:32;;;;;;;30.33;15.10;;;3.70;99.90;;;;;;4186092;28;20536;-74
2024/02/28 05:43:36;;;;;;;33.63;16.00;;;3.60;99.90;;;;;;4188426;28;20470;-74
2024/02/28 05:45:37;;;;;;;31.83;15.00;;;3.60;99.90;;;;;;4187552;28;20468;-75
2024/02/28 05:47:39;;;;;;;31.17;15.77;;;3.60;99.90;;;;;;4188008;28;20526;-74
2024/02/28 05:49:41;;;;;;;34.20;15.70;;;3.60;99.90;;;;;;4187234;28;20505;-75
2024/02/28 05:51:43;;;;;;;31.43;15.30;;;3.60;99.90;;;;;;4186183;28;20453;-73
2024/02/28 05:53:45;;;;;;;38.30;15.83;;;3.60;99.90;;;;;;4188040;28;20448;-73
2024/02/28 05:55:48;;;;;;;35.13;16.33;;;3.60;99.90;;;;;;4187821;28;20476;-73
2024/02/28 05:57:50;;;;;;;34.30;15.23;;;3.60;99.90;;;;;;4189360;28;20463;-72
2024/02/28 05:59:52;;;;;;;30.97;15.57;;;3.60;99.90;;;;;;4190844;28;21035;-72
2024/02/28 06:01:54;;;;;;;31.57;14.97;;;3.60;99.90;;;;;;4189502;28;20444;-74
2024/02/28 06:03:56;;;;;;;31.50;15.07;;;3.60;99.90;;;;;;4189301;28;20568;-72
2024/02/28 06:05:58;;;;;;;31.03;13.90;;;3.50;99.90;;;;;;4185065;28;20494;-74
2024/02/28 06:08:00;;;;;;;32.23;14.93;;;3.50;99.90;;;;;;4188779;28;20528;-73
2024/02/28 06:10:02;;;;;;;32.50;15.20;;;3.50;99.90;;;;;;4185588;28;20481;-73
2024/02/28 06:12:06;;;;;;;33.67;14.87;;;3.50;99.90;;;;;;4187347;28;20494;-75
2024/02/28 06:14:08;;;;;;;33.90;14.83;;;3.50;99.90;;;;;;4185392;28;20473;-73
2024/02/28 06:16:15;;;;;;;35.77;15.10;;;3.50;99.90;;;;;;4192823;28;20937;-74
2024/02/28 06:18:16;;;;;;;35.07;15.37;;;3.50;99.90;;;;;;4193673;28;20888;-74
2024/02/28 06:20:18;;;;;;;35.40;15.53;;;3.50;99.90;;;;;;4188828;28;20444;-75
2024/02/28 06:22:20;;;;;;;33.17;15.03;;;3.50;99.90;;;;;;4198757;28;20608;-75
2024/02/28 06:24:22;;;;;;;32.67;15.40;;;3.50;99.90;;;;;;4187528;28;20903;-75
2024/02/28 06:26:24;;;;;;;30.50;13.83;;;3.50;99.90;;;;;;4183985;28;20451;-75
2024/02/28 06:28:27;;;;;;;28.40;14.20;;;3.50;99.90;;;;;;4183443;28;20461;-74
2024/02/28 06:30:29;;;;;;;28.07;14.37;;;3.50;99.90;;;;;;4187998;28;21023;-75
2024/02/28 06:32:31;;;;;;;30.03;14.80;;;3.50;99.90;;;;;;4186173;28;20470;-74
2024/02/28 06:34:33;;;;;;;34.27;15.03;;;3.50;99.90;;;;;;4188353;28;21064;-73
2024/02/28 06:36:35;;;;;;;33.20;15.23;;;3.50;99.90;;;;;;4190013;28;20465;-72
2024/02/28 06:38:37;;;;;;;33.43;15.83;;;3.50;99.90;;;;;;4186644;28;20476;-72
2024/02/28 06:40:39;;;;;;;29.83;15.03;;;3.50;99.90;;;;;;4190725;28;20467;-71
2024/02/28 06:42:41;;;;;;;33.53;13.97;;;3.50;99.90;;;;;;4191284;28;20446;-72
2024/02/28 06:44:44;;;;;;;31.10;14.77;;;3.50;99.90;;;;;;4190134;28;22239;-73
2024/02/28 06:46:46;;;;;;;32.83;14.80;;;3.40;99.90;;;;;;4182557;28;20500;-73
2024/02/28 06:48:48;;;;;;;34.40;14.60;;;3.40;99.90;;;;;;4184910;28;20485;-73
2024/02/28 06:50:50;;;;;;;30.10;14.40;;;3.40;99.90;;;;;;4186346;28;20438;-74
2024/02/28 06:52:53;;;;;;;29.07;13.37;;;3.40;99.90;;;;;;4183508;28;20914;-78
2024/02/28 06:54:55;;;;;;;27.30;13.27;;;3.40;99.90;;;;;;4190996;28;20536;-79
2024/02/28 06:56:57;;;;;;;30.17;13.63;;;3.40;99.90;;;;;;4189344;28;20459;-78
2024/02/28 06:58:59;;;;;;;28.07;12.97;;;3.50;99.90;;;;;;4187281;28;20810;-80
2024/02/28 07:01:02;;;;;;;23.97;12.63;;;3.50;99.90;;;;;;4190307;28;20444;-73
2024/02/28 07:03:05;;;;;;;27.80;13.70;;;3.50;99.90;;;;;;4183319;28;20445;-73
2024/02/28 07:05:07;;;;;;;27.10;12.40;;;3.50;99.90;;;;;;4182195;28;21003;-73
2024/02/28 07:07:09;;;;;;;28.87;13.83;;;3.50;99.90;;;;;;4183724;28;20457;-74
2024/02/28 07:09:12;;;;;;;28.33;13.10;;;3.50;99.90;;;;;;4187516;28;20473;-73
2024/02/28 07:11:14;;;;;;;24.10;12.60;;;3.50;99.90;;;;;;4179531;28;21043;-73
2024/02/28 07:13:16;;;;;;;29.93;13.10;;;3.50;99.90;;;;;;4184448;28;20461;-74
2024/02/28 07:15:20;;;;;;;26.00;12.03;;;3.50;99.90;;;;;;4186657;28;20471;-74
2024/02/28 07:17:23;;;;;;;30.33;13.37;;;3.60;99.90;;;;;;4181619;28;20446;-72
2024/02/28 07:19:25;;;;;;;26.67;12.33;;;3.60;99.90;;;;;;4181492;28;20489;-73
2024/02/28 07:21:27;;;;;;;28.10;13.57;;;3.60;99.90;;;;;;4183802;28;20510;-73
2024/02/28 07:23:29;;;;;;;29.07;14.00;;;3.60;99.90;;;;;;4185035;28;20499;-74
2024/02/28 07:25:32;;;;;;;29.03;13.60;;;3.60;99.90;;;;;;4187035;28;20566;-74
2024/02/28 07:27:33;;;;;;;29.70;14.03;;;3.70;99.90;;;;;;4183098;28;20453;-73
2024/02/28 07:29:35;;;;;;;32.93;15.03;;;3.70;99.90;;;;;;4185004;28;20514;-73
2024/02/28 07:31:35;;;;;;;36.43;16.73;;;3.60;99.90;;;;;;4187662;28;20211;-73
2024/02/28 07:33:41;;;;;;;31.67;15.33;;;3.60;99.90;;;;;;4191162;28;20552;-73
2024/02/28 07:35:45;;;;;;;36.30;16.47;;;3.60;99.90;;;;;;4185279;28;20903;-73
2024/02/28 07:37:47;;;;;;;35.37;15.63;;;3.60;99.90;;;;;;4181124;28;20453;-73
2024/02/28 07:39:49;;;;;;;37.77;16.83;;;3.60;99.90;;;;;;4186711;28;20457;-73
2024/02/28 07:41:51;;;;;;;42.60;18.93;;;3.60;99.90;;;;;;4183830;28;20489;-73
2024/02/28 07:43:53;;;;;;;44.00;18.87;;;3.60;99.90;;;;;;4183033;28;20485;-75
2024/02/28 07:45:54;;;;;;;42.53;20.00;;;3.60;99.90;;;;;;4186216;28;20459;-72
2024/02/28 07:47:56;;;;;;;49.10;20.57;;;3.60;99.90;;;;;;4187300;28;20545;-73
2024/02/28 07:50:02;;;;;;;50.93;20.93;;;3.60;99.90;;;;;;4185890;28;20486;-73
2024/02/28 07:52:03;;;;;;;46.87;20.90;;;3.70;99.90;;;;;;4182665;28;20507;-73
2024/02/28 07:54:05;;;;;;;46.53;19.27;;;3.70;99.90;;;;;;4181091;28;20450;-73
2024/02/28 07:56:07;;;;;;;44.27;18.70;;;3.70;99.90;;;;;;4180275;28;20451;-74
2024/02/28 07:58:10;;;;;;;38.77;17.03;;;3.70;99.90;;;;;;4184842;28;20511;-75
2024/02/28 08:00:16;;;;;;;40.90;17.77;;;3.70;99.90;;;;;;4184056;28;20445;-73
2024/02/28 08:02:20;;;;;;;38.20;17.70;;;3.80;99.90;;;;;;4180443;28;20453;-74
2024/02/28 08:04:22;;;;;;;41.47;19.20;;;3.80;99.90;;;;;;4185639;28;20493;-73
2024/02/28 08:06:25;;;;;;;39.60;18.93;;;3.90;99.90;;;;;;4182584;28;20508;-75
2024/02/28 08:08:27;;;;;;;40.23;18.13;;;3.90;99.90;;;;;;4184476;28;20520;-73
2024/02/28 08:10:29;;;;;;;41.97;19.00;;;4.00;99.90;;;;;;4182448;28;20490;-73
2024/02/28 08:12:32;;;;;;;41.40;19.10;;;4.00;99.90;;;;;;4184187;28;20452;-73
2024/02/28 08:14:34;;;;;;;43.97;19.47;;;4.00;99.90;;;;;;4189446;28;20531;-73
2024/02/28 08:16:35;;;;;;;39.67;18.50;;;4.00;99.90;;;;;;4190580;28;20471;-74
2024/02/28 08:18:37;;;;;;;39.20;18.27;;;4.00;99.90;;;;;;4187663;28;20473;-73
2024/02/28 08:20:39;;;;;;;40.67;18.27;;;4.10;99.90;;;;;;4186645;28;20914;-72
2024/02/28 08:22:43;;;;;;;39.33;18.53;;;4.10;99.90;;;;;;4188161;28;20534;-74
2024/02/28 08:24:44;;;;;;;43.83;20.37;;;4.10;99.90;;;;;;4181155;28;20477;-74
2024/02/28 08:26:45;;;;;;;37.10;18.13;;;4.20;99.90;;;;;;4183289;28;20450;-74
2024/02/28 08:28:46;;;;;;;40.47;20.47;;;4.20;99.90;;;;;;4183361;28;20231;-74
2024/02/28 08:30:50;;;;;;;43.63;19.27;;;4.30;99.90;;;;;;4193863;28;20488;-75
2024/02/28 08:32:52;;;;;;;42.70;20.17;;;4.30;99.90;;;;;;4194237;28;20209;-74
2024/02/28 08:34:54;;;;;;;40.60;18.60;;;4.40;99.90;;;;;;4188962;28;20529;-74
2024/02/28 08:36:56;;;;;;;40.90;20.10;;;4.40;99.90;;;;;;4184260;28;20440;-73
2024/02/28 08:38:59;;;;;;;45.07;20.93;;;4.50;99.90;;;;;;4179902;28;20494;-74
2024/02/28 08:41:01;;;;;;;43.70;21.20;;;4.50;99.90;;;;;;4180064;28;20458;-74
2024/02/28 08:43:03;;;;;;;44.87;21.23;;;4.60;99.90;;;;;;4179041;28;20454;-75
2024/02/28 08:45:06;;;;;;;43.20;21.40;;;4.60;99.90;;;;;;4182147;28;21009;-75
2024/02/28 08:47:09;;;;;;;39.47;18.97;;;4.70;99.90;;;;;;4186185;28;21979;-76
2024/02/28 08:49:11;;;;;;;42.73;21.57;;;4.70;99.90;;;;;;4184408;28;20516;-76
2024/02/28 08:51:13;;;;;;;42.00;20.33;;;4.80;99.90;;;;;;4183102;28;20518;-76
2024/02/28 08:53:14;;;;;;;44.17;21.67;;;4.90;99.90;;;;;;4181567;28;20473;-76
2024/02/28 08:55:18;;;;;;;42.53;22.03;;;5.00;99.90;;;;;;4186462;28;20470;-76
2024/02/28 08:57:22;;;;;;;38.00;19.80;;;5.00;99.90;;;;;;4181976;28;20209;-76
2024/02/28 08:59:25;;;;;;;39.83;20.40;;;5.00;99.90;;;;;;4185785;28;20940;-76
2024/02/28 09:01:27;;;;;;;44.13;21.37;;;5.10;99.90;;;;;;4183686;28;20461;-76
2024/02/28 09:03:29;;;;;;;43.77;21.50;;;5.20;99.90;;;;;;4182043;28;20857;-76
2024/02/28 09:05:30;;;;;;;39.13;20.87;;;5.20;99.90;;;;;;4183773;28;20482;-76
2024/02/28 09:07:35;;;;;;;41.97;20.73;;;5.20;99.90;;;;;;4184331;28;20865;-76
2024/02/28 09:09:38;;;;;;;43.93;20.67;;;5.20;99.90;;;;;;4186160;28;20532;-76
2024/02/28 09:11:41;;;;;;;37.43;19.97;;;5.20;99.90;;;;;;4183718;28;20452;-76
2024/02/28 09:13:42;;;;;;;42.87;20.87;;;5.20;99.90;;;;;;4184974;28;20484;-77
2024/02/28 09:15:44;;;;;;;41.77;20.10;;;5.20;99.90;;;;;;4184427;28;20471;-74
2024/02/28 09:17:46;;;;;;;38.97;19.43;;;5.20;99.90;;;;;;4182347;28;20630;-75
2024/02/28 09:19:48;;;;;;;38.63;18.63;;;5.20;99.90;;;;;;4181577;28;20830;-75
2024/02/28 09:21:50;;;;;;;25.80;13.70;;;5.20;99.90;;;;;;4187177;28;20455;-75
2024/02/28 09:23:52;;;;;;;28.77;14.20;;;5.10;99.90;;;;;;4184188;28;20467;-76
2024/02/28 09:25:55;;;;;;;30.47;15.17;;;5.10;99.90;;;;;;4191288;28;20475;-77
2024/02/28 09:28:00;;;;;;;25.87;13.93;;;5.00;99.90;;;;;;4183478;28;20448;-76
2024/02/28 09:30:02;;;;;;;27.97;15.00;;;5.00;99.90;;;;;;4181889;28;20845;-76
2024/02/28 09:32:05;;;;;;;24.77;12.97;;;5.00;99.90;;;;;;4184236;28;20459;-77
2024/02/28 09:34:09;;;;;;;26.33;14.00;;;5.20;99.90;;;;;;4184008;28;20468;-76
2024/02/28 09:36:11;;;;;;;37.87;18.63;;;5.00;99.90;;;;;;4183991;28;20446;-76
2024/02/28 09:38:12;;;;;;;34.90;17.77;;;5.10;99.90;;;;;;4182136;28;20562;-76
2024/02/28 09:40:14;;;;;;;36.13;18.90;;;5.10;99.90;;;;;;4184746;28;20475;-76
2024/02/28 09:42:16;;;;;;;35.00;17.80;;;5.10;99.90;;;;;;4185057;28;20220;-76
2024/02/28 09:44:23;;;;;;;37.07;20.00;;;5.20;99.90;;;;;;4184286;28;20488;-77
2024/02/28 09:46:25;;;;;;;40.07;20.23;;;5.30;99.90;;;;;;4184411;28;20967;-77
2024/02/28 09:48:29;;;;;;;32.93;17.40;;;5.40;99.90;;;;;;4183802;28;20475;-77
2024/02/28 09:50:31;;;;;;;27.87;14.57;;;5.50;99.90;;;;;;4184735;28;20856;-77
2024/02/28 09:52:33;;;;;;;25.77;13.47;;;5.50;99.90;;;;;;4183366;28;21201;-76
2024/02/28 09:54:35;;;;;;;24.37;12.87;;;5.50;99.90;;;;;;4184538;28;20506;-76
2024/02/28 09:56:37;;;;;;;22.83;12.37;;;5.50;99.90;;;;;;4183611;28;20455;-76
2024/02/28 09:58:42;;;;;;;26.67;13.23;;;5.60;99.90;;;;;;4184573;28;20970;-76
2024/02/28 10:00:46;;;;;;;26.93;13.40;;;5.70;99.90;;;;;;4188571;28;20445;-76
2024/02/28 10:02:49;;;;;;;28.10;14.30;;;5.70;99.90;;;;;;4185815;28;20542;-77
2024/02/28 10:04:52;;;;;;;25.97;13.27;;;5.60;99.90;;;;;;4187560;28;20566;-77
2024/02/28 10:06:53;;;;;;;25.83;14.17;;;5.70;99.90;;;;;;4188490;28;20459;-76
2024/02/28 10:08:55;;;;;;;30.40;15.17;;;5.80;99.90;;;;;;4184230;28;20455;-76
2024/02/28 10:10:58;;;;;;;27.67;13.50;;;5.80;99.90;;;;;;4188257;28;20519;-76
2024/02/28 10:13:00;;;;;;;28.73;14.33;;;5.80;99.90;;;;;;4187483;28;20517;-77
2024/02/28 10:15:01;;;;;;;30.90;16.07;;;5.80;99.90;;;;;;4188982;28;20478;-76
2024/02/28 10:17:04;;;;;;;34.73;17.53;;;5.80;99.90;;;;;;4185060;28;20452;-77
2024/02/28 10:19:08;;;;;;;29.97;16.03;;;5.70;99.90;;;;;;4194131;28;20271;-77
2024/02/28 10:21:10;;;;;;;33.20;16.80;;;5.70;99.90;;;;;;4186158;28;20449;-76
2024/02/28 10:23:12;;;;;;;38.70;19.50;;;5.70;99.90;;;;;;4183208;28;20437;-77
2024/02/28 10:25:15;;;;;;;36.63;18.80;;;5.70;99.90;;;;;;4189563;28;20524;-80
2024/02/28 10:27:19;;;;;;;33.47;18.13;;;5.70;99.90;;;;;;4190060;28;20459;-76